Reads Landing, MN (55968)

11:24 PM CDT on April 01, 2015 (GMT -0500)
Robinson Lake | | Change Station
CLOSE
Current Station
Personal Weather Station
Location: Wabasha, MN
Elevation: 696 ft
Nearby Weather Stations
Active Advisory: Fire Weather Watch Active Notice: Public Information Statement

Elev 696 ft 44.36 °N, 92.00 °W | Updated 11 minutes ago

Overcast
Overcast
60.1 °F
Feels Like 60.1 °F
N
8.9
Wind Variable Wind from NW

Today
High -- | Low -- °F
--% Chance of Precip.
Yesterday
High -- | Low -- °F
Precip. -- in
6:49 AM 7:35 PM
Waxing Gibbous, 95% visible
Pressure 29.54 in
Visibility 10.0 miles
Clouds Mostly Cloudy 2400 ft
Mostly Cloudy 3100 ft
Overcast 7000 ft
Dew Point 54 °F
Humidity 81%
Rainfall 0.02 in
Snow Depth Not available.
UV 0 out of 12
Pollen 7.20 out of 12
Air Quality Not available.
Flu Activity Not available.
METAR KRGK 020411Z AUTO 12008KT 10SM RA BKN024 BKN031 OVC070 14/13 A2954 RMK AO2 P0008 LTG DSNT E THRU S

More Conditions Fewer Conditions

Pressure 29.54 in
Visibility 10.0 miles
Clouds Mostly Cloudy 2400 ft
Mostly Cloudy 3100 ft
Overcast 7000 ft
Dew Point 54 °F
Humidity 81%
Rainfall 0.02 in
Snow Depth Not available.
UV 0 out of 12
Pollen 7.20 out of 12
Air Quality Not available.
Flu Activity Not available.
METAR KRGK 020411Z AUTO 12008KT 10SM RA BKN024 BKN031 OVC070 14/13 A2954 RMK AO2 P0008 LTG DSNT E THRU S

More Conditions Fewer Conditions

10-Day Weather Forecast

Almanac

Astronomy

Apr. 01, 2015 Rise Set
Actual Time
Civil Twilight
Nautical Twilight
Astronomical Twilight
Moon
Length of Visible Light
Length of Day
Tomorrow will be .
, % of the Moon is Illuminated

Today's Extremes

State Highs State Lows

Community

WunderPhotos

Upload Photos

1,810,197 photos uploaded!

WunderBlogs® & News

Nearby

Air Quality

  Air Quality AQ Index Pollutant
Not available.

Snow Depth

Station Depth Elevation

Earthquake Activity

City Distance Mag. Time & Date
Minimum magnitude displayed is 2.5.

Coastal Water Temperatures

Place Temperature

Stations

Nearby Weather Stations

Station Location Temp. Windchill Dew Point Humidity Wind Precip. Elev Updated Type
                   
Fire Weather Watch
Statement as of 7:09 PM CDT on April 01, 2015

... Fire Weather Watch remains in effect from Thursday morning
through Thursday evening for strong winds and low humidity for
portions of southeast Minnesota...

* Fire Weather Watch from 10 am to 7 PM Thursday.

* Gusty west winds of 15 to 25 mph Thursday.

* Minimum relative humidities in the mid 20 percents.

* High temperatures 60 to 65.

* Under these conditions... fires could start easily and spread
quickly. Avoid outdoor burning.


Precautionary/preparedness actions...

A Fire Weather Watch means that critical fire weather conditions
are forecast to occur. Listen for later forecasts and possible
red flag warnings.